createdAt,value
2022-11-05T00:00:03.072Z,6.89
2022-11-05T00:02:50.208Z,6.86
2022-11-05T00:05:35.394Z,6.73
2022-11-05T00:08:22.815Z,6.83
2022-11-05T00:10:52.229Z,6.30
2022-11-05T00:13:37.765Z,6.72
2022-11-05T00:16:23.171Z,6.75
2022-11-05T00:19:06.381Z,6.85
2022-11-05T00:21:52.980Z,6.88
2022-11-05T00:24:38.189Z,6.66
2022-11-05T00:27:04.910Z,6.51
2022-11-05T00:29:31.558Z,6.35
2022-11-05T00:31:58.312Z,6.84
2022-11-05T00:34:24.946Z,6.75
2022-11-05T00:36:51.636Z,6.35
2022-11-05T00:39:18.235Z,6.85
2022-11-05T00:42:04.838Z,6.35
2022-11-05T00:44:50.155Z,6.80
2022-11-05T00:47:35.575Z,6.85
2022-11-05T00:50:02.278Z,6.86
2022-11-05T00:52:47.470Z,6.36
2022-11-05T00:55:14.044Z,6.76
2022-11-05T00:57:40.574Z,6.57
2022-11-05T01:00:07.681Z,6.77
2022-11-05T01:02:34.359Z,6.44
2022-11-05T01:05:00.951Z,6.23
2022-11-05T01:07:28.261Z,6.49
2022-11-05T01:09:54.812Z,6.66
2022-11-05T01:12:21.404Z,6.29
2022-11-05T01:14:47.967Z,6.67
2022-11-05T01:17:14.631Z,6.12
2022-11-05T01:19:41.169Z,6.22
2022-11-05T01:22:07.917Z,6.77
2022-11-05T01:24:34.462Z,6.15
2022-11-05T01:27:02.286Z,6.40
2022-11-05T01:29:28.851Z,6.36
2022-11-05T01:31:55.451Z,6.93
2022-11-05T01:34:22.036Z,6.54
2022-11-05T01:36:48.632Z,6.94
2022-11-05T01:39:17.992Z,6.78
2022-11-05T01:41:44.635Z,6.74
2022-11-05T01:45:05.871Z,6.82
2022-11-05T01:47:46.948Z,6.78
2022-11-05T01:50:13.452Z,6.72
2022-11-05T01:52:40.017Z,6.18
2022-11-05T01:55:09.434Z,6.22
2022-11-05T01:57:36.156Z,6.66
2022-11-05T02:00:03.848Z,6.41
2022-11-05T02:02:39.757Z,6.40
2022-11-05T02:05:11.827Z,6.06
2022-11-05T02:07:39.419Z,6.02
2022-11-05T02:10:09.468Z,6.47
2022-11-05T02:12:39.718Z,5.72
2022-11-05T02:15:06.976Z,6.43
2022-11-05T02:18:12.992Z,6.41
2022-11-05T02:21:14.953Z,6.40
2022-11-05T02:24:32.302Z,6.40
2022-11-05T02:27:07.952Z,6.36
2022-11-05T02:30:05.495Z,6.32
2022-11-05T02:32:34.906Z,6.28
2022-11-05T02:35:19.197Z,6.08
2022-11-05T02:37:52.393Z,5.96
2022-11-05T02:40:19.224Z,6.20
2022-11-05T02:43:15.335Z,5.82
2022-11-05T02:46:00.130Z,6.18
2022-11-05T02:48:30.456Z,6.18
2022-11-05T02:51:27.552Z,3.94
2022-11-05T02:54:06.202Z,5.99
2022-11-05T02:56:36.686Z,6.18
2022-11-05T02:59:03.410Z,5.56
2022-11-05T03:01:30.110Z,5.54
2022-11-05T03:04:03.518Z,5.77
2022-11-05T03:06:48.584Z,6.14
2022-11-05T03:09:15.086Z,6.15
2022-11-05T03:11:54.677Z,6.17
2022-11-05T03:14:41.963Z,5.48
2022-11-05T03:17:31.823Z,5.65
2022-11-05T03:20:11.416Z,6.10
2022-11-05T03:22:53.913Z,5.17
2022-11-05T03:25:25.766Z,5.87
2022-11-05T03:27:58.487Z,5.71
2022-11-05T03:30:25.597Z,5.25
2022-11-05T03:32:59.344Z,5.78
2022-11-05T03:35:30.677Z,5.76
2022-11-05T03:38:01.800Z,5.72
2022-11-05T03:40:34.928Z,5.49
2022-11-05T03:43:06.637Z,5.61
2022-11-05T03:45:40.468Z,5.57
2022-11-05T03:48:10.769Z,5.57
2022-11-05T03:50:41.404Z,4.67
2022-11-05T03:53:16.987Z,5.00
2022-11-05T03:55:54.471Z,5.23
2022-11-05T03:58:22.987Z,4.88
2022-11-05T04:00:50.805Z,5.52
2022-11-05T04:03:17.350Z,5.51
2022-11-05T04:05:44.099Z,5.51
2022-11-05T04:08:29.308Z,5.54
2022-11-05T04:11:21.729Z,5.57
2022-11-05T04:13:48.356Z,5.55
2022-11-05T04:16:33.392Z,5.64
2022-11-05T04:19:00.249Z,4.97
2022-11-05T04:21:45.262Z,5.49
2022-11-05T04:24:12.745Z,5.56
2022-11-05T04:26:42.055Z,5.63
2022-11-05T04:29:27.467Z,5.61
2022-11-05T04:31:54.747Z,5.58
2022-11-05T04:34:24.962Z,5.54
2022-11-05T04:36:53.046Z,5.02
2022-11-05T04:39:20.654Z,5.40
2022-11-05T04:41:50.412Z,4.73
2022-11-05T04:44:17.136Z,5.32
2022-11-05T04:46:43.847Z,5.60
2022-11-05T04:49:10.469Z,5.61
2022-11-05T04:51:37.103Z,5.10
2022-11-05T04:54:03.792Z,4.93
2022-11-05T04:56:30.347Z,4.66
2022-11-05T04:58:56.909Z,5.63
2022-11-05T05:01:25.332Z,5.02
2022-11-05T05:03:53.838Z,5.62
2022-11-05T05:06:21.218Z,5.00
2022-11-05T05:08:49.230Z,5.08
2022-11-05T05:11:17.710Z,5.75
2022-11-05T05:13:44.296Z,5.50
2022-11-05T05:16:36.993Z,5.79
2022-11-05T05:19:03.557Z,5.80
2022-11-05T05:21:39.128Z,5.51
2022-11-05T05:24:08.632Z,5.71
2022-11-05T05:26:37.017Z,5.81
2022-11-05T05:29:04.960Z,5.27
2022-11-05T05:31:31.780Z,5.81
2022-11-05T05:33:58.524Z,5.13
2022-11-05T05:36:25.093Z,5.31
2022-11-05T05:38:51.692Z,5.38
2022-11-05T05:41:18.447Z,5.80
2022-11-05T05:43:45.269Z,5.81
2022-11-05T05:46:14.976Z,5.66
2022-11-05T05:48:42.480Z,5.61
2022-11-05T05:51:11.443Z,5.46
2022-11-05T05:53:38.604Z,5.23
2022-11-05T05:56:05.943Z,5.84
2022-11-05T05:58:38.094Z,5.88
2022-11-05T06:01:17.215Z,5.13
2022-11-05T06:03:47.391Z,5.92
2022-11-05T06:06:15.757Z,5.95
2022-11-05T06:08:42.683Z,5.71
2022-11-05T06:11:09.478Z,5.40
2022-11-05T06:13:39.524Z,6.04
2022-11-05T06:16:08.329Z,6.05
2022-11-05T06:18:36.487Z,5.55
2022-11-05T06:21:03.040Z,6.13
2022-11-05T06:23:33.701Z,5.83
2022-11-05T06:26:05.071Z,6.11
2022-11-05T06:28:31.589Z,6.18
2022-11-05T06:30:58.211Z,6.22
2022-11-05T06:33:25.055Z,5.73
2022-11-05T06:35:52.853Z,6.33
2022-11-05T06:38:19.382Z,6.21
2022-11-05T06:40:46.283Z,6.28
2022-11-05T06:43:13.200Z,6.52
2022-11-05T06:45:39.976Z,6.46
2022-11-05T06:48:06.860Z,6.53
2022-11-05T06:50:33.604Z,6.64
2022-11-05T06:53:02.589Z,6.70
2022-11-05T06:55:31.062Z,6.75
2022-11-05T06:57:57.619Z,6.41
2022-11-05T07:00:24.776Z,6.91
2022-11-05T07:02:51.367Z,6.67
2022-11-05T07:05:18.259Z,6.60
2022-11-05T07:07:45.844Z,7.19
2022-11-05T07:10:17.952Z,6.90
2022-11-05T07:12:44.504Z,6.70
2022-11-05T07:15:12.270Z,7.52
2022-11-05T07:17:40.035Z,7.41
2022-11-05T07:20:08.135Z,7.32
2022-11-05T07:22:35.468Z,7.83
2022-11-05T07:25:03.900Z,7.86
2022-11-05T07:27:30.433Z,8.03
2022-11-05T07:29:57.016Z,7.89
2022-11-05T07:32:23.622Z,7.98
2022-11-05T07:34:50.172Z,7.74
2022-11-05T07:37:16.829Z,7.79
2022-11-05T07:39:43.432Z,8.27
2022-11-05T07:42:15.640Z,8.17
2022-11-05T07:44:43.668Z,8.18
2022-11-05T07:47:10.206Z,8.34
2022-11-05T07:49:36.727Z,8.44
2022-11-05T07:52:03.305Z,8.51
2022-11-05T07:54:29.879Z,8.53
2022-11-05T07:56:56.618Z,8.43
2022-11-05T07:59:23.226Z,8.68
2022-11-05T08:01:50.081Z,8.28
2022-11-05T08:04:16.785Z,8.69
2022-11-05T08:06:43.297Z,7.96
2022-11-05T08:09:09.899Z,8.65
2022-11-05T08:11:36.580Z,8.18
2022-11-05T08:14:03.527Z,8.37
2022-11-05T08:16:30.081Z,8.44
2022-11-05T08:18:58.678Z,8.44
2022-11-05T08:21:25.188Z,8.22
2022-11-05T08:23:51.798Z,8.55
2022-11-05T08:26:20.022Z,7.39
2022-11-05T08:28:46.578Z,8.90
2022-11-05T08:31:15.300Z,8.40
2022-11-05T08:33:42.685Z,8.82
2022-11-05T08:36:09.253Z,8.77
2022-11-05T08:38:35.832Z,9.37
2022-11-05T08:41:08.268Z,9.04
2022-11-05T08:43:34.817Z,9.52
2022-11-05T08:46:01.780Z,9.26
2022-11-05T08:48:28.554Z,9.68
2022-11-05T08:50:55.223Z,9.54
2022-11-05T08:53:21.838Z,10.02
2022-11-05T08:55:50.023Z,9.99
2022-11-05T08:58:17.262Z,10.02
2022-11-05T09:00:48.857Z,10.11
2022-11-05T09:03:16.380Z,9.92
2022-11-05T09:05:43.807Z,10.13
2022-11-05T09:08:19.540Z,10.36
2022-11-05T09:10:47.423Z,10.48
2022-11-05T09:13:18.744Z,10.21
2022-11-05T09:15:47.697Z,10.62
2022-11-05T09:18:14.817Z,10.50
2022-11-05T09:20:41.833Z,10.27
2022-11-05T09:23:09.796Z,10.86
2022-11-05T09:25:36.588Z,10.94
2022-11-05T09:28:22.577Z,10.99
2022-11-05T09:30:51.018Z,11.03
2022-11-05T09:33:19.698Z,10.44
2022-11-05T09:35:46.437Z,10.97
2022-11-05T09:38:13.244Z,10.90
2022-11-05T09:40:43.239Z,10.37
2022-11-05T09:43:18.702Z,10.59
2022-11-05T09:45:48.457Z,10.42
2022-11-05T09:48:17.351Z,10.67
2022-11-05T09:50:46.278Z,10.71
2022-11-05T09:53:19.382Z,10.70
2022-11-05T09:55:49.951Z,9.99
2022-11-05T09:58:20.484Z,10.40
2022-11-05T10:00:52.372Z,10.84
2022-11-05T10:03:23.909Z,10.58
2022-11-05T10:05:53.256Z,11.00
2022-11-05T10:08:25.685Z,11.09
2022-11-05T10:11:02.345Z,11.19
2022-11-05T10:13:46.945Z,11.36
2022-11-05T10:16:41.230Z,11.51
2022-11-05T10:19:13.455Z,11.66
2022-11-05T10:24:28.443Z,11.86
2022-11-05T10:26:56.054Z,11.91
2022-11-05T10:29:29.582Z,10.56
2022-11-05T10:31:58.308Z,12.15
2022-11-05T10:34:33.309Z,11.31
2022-11-05T10:37:00.228Z,12.52
2022-11-05T10:39:29.324Z,12.71
2022-11-05T10:42:04.952Z,12.88
2022-11-05T10:44:53.163Z,12.55
2022-11-05T10:47:48.522Z,13.00
2022-11-05T10:50:21.410Z,13.05
2022-11-05T10:53:01.695Z,13.05
2022-11-05T10:55:32.195Z,12.58
2022-11-05T10:58:21.098Z,12.59
2022-11-05T11:00:56.428Z,12.59
2022-11-05T11:03:45.908Z,12.59
2022-11-05T11:06:26.024Z,12.12
2022-11-05T11:08:55.425Z,12.51
2022-11-05T11:11:28.895Z,12.16
2022-11-05T11:14:04.805Z,12.81
2022-11-05T11:16:46.002Z,12.46
2022-11-05T11:19:29.546Z,13.13
2022-11-05T11:22:05.170Z,13.39
2022-11-05T11:24:38.771Z,13.54
2022-11-05T11:27:13.567Z,13.57
2022-11-05T11:29:48.154Z,13.58
2022-11-05T11:32:18.687Z,13.58
2022-11-05T11:34:48.758Z,13.56
2022-11-05T11:37:24.306Z,13.45
2022-11-05T11:40:03.253Z,13.38
2022-11-05T11:42:36.615Z,13.27
2022-11-05T11:45:19.173Z,12.56
2022-11-05T11:47:48.805Z,12.78
2022-11-05T11:50:33.747Z,13.10
2022-11-05T11:53:19.636Z,12.73
2022-11-05T11:55:55.287Z,12.97
2022-11-05T11:58:23.719Z,12.80
2022-11-05T12:01:02.991Z,12.85
2022-11-05T12:03:55.552Z,13.36
2022-11-05T12:06:36.416Z,13.43
2022-11-05T12:09:29.096Z,13.03
2022-11-05T12:12:04.894Z,13.31
2022-11-05T12:14:53.111Z,13.16
2022-11-05T12:17:53.503Z,13.16
2022-11-05T12:20:48.654Z,13.33
2022-11-05T12:23:49.883Z,13.51
2022-11-05T12:26:26.871Z,13.75
2022-11-05T12:29:23.124Z,13.36
2022-11-05T12:32:21.872Z,14.13
2022-11-05T12:35:15.326Z,14.02
2022-11-05T12:37:54.769Z,14.60
2022-11-05T12:40:27.347Z,14.66
2022-11-05T12:43:32.899Z,14.27
2022-11-05T12:45:59.644Z,14.72
2022-11-05T12:48:41.552Z,14.67
2022-11-05T12:51:27.695Z,14.01
2022-11-05T12:53:59.225Z,14.68
2022-11-05T12:56:25.749Z,14.68
2022-11-05T12:59:12.961Z,14.69
2022-11-05T13:01:51.404Z,14.60
2022-11-05T13:04:46.374Z,14.65
2022-11-05T13:07:18.257Z,14.84
2022-11-05T13:09:52.002Z,14.92
2022-11-05T13:12:22.626Z,15.15
2022-11-05T13:14:56.031Z,15.11
2022-11-05T13:17:28.080Z,15.49
2022-11-05T13:19:58.887Z,15.37
2022-11-05T13:22:44.410Z,15.49
2022-11-05T13:25:21.580Z,15.19
2022-11-05T13:28:06.682Z,15.19
2022-11-05T13:30:38.182Z,14.77
2022-11-05T13:33:12.603Z,14.61
2022-11-05T13:35:42.127Z,14.03
2022-11-05T13:38:44.597Z,14.33
2022-11-05T13:41:24.985Z,14.03
2022-11-05T13:44:27.767Z,13.84
2022-11-05T13:47:16.031Z,13.82
2022-11-05T13:50:14.559Z,13.77
2022-11-05T13:53:21.158Z,13.70
2022-11-05T13:55:50.535Z,13.54
2022-11-05T13:58:56.386Z,12.86
2022-11-05T14:01:49.815Z,13.25
2022-11-05T14:04:47.734Z,13.12
2022-11-05T14:07:28.057Z,13.04
2022-11-05T14:10:01.050Z,12.37
2022-11-05T14:12:38.733Z,12.86
2022-11-05T14:15:28.400Z,12.35
2022-11-05T14:18:24.168Z,12.53
2022-11-05T14:20:59.900Z,12.38
2022-11-05T14:23:27.616Z,12.73
2022-11-05T14:26:12.057Z,12.72
2022-11-05T14:28:42.379Z,12.77
2022-11-05T14:31:18.537Z,12.80
2022-11-05T14:34:14.512Z,12.82
2022-11-05T14:36:43.105Z,12.80
2022-11-05T14:39:20.586Z,12.47
2022-11-05T14:42:11.809Z,12.73
2022-11-05T14:44:59.714Z,12.57
2022-11-05T14:47:33.393Z,11.94
2022-11-05T14:50:17.851Z,12.21
2022-11-05T14:52:53.423Z,12.14
2022-11-05T14:55:28.477Z,11.82
2022-11-05T14:57:55.466Z,11.92
2022-11-05T15:00:40.747Z,11.81
2022-11-05T15:03:49.304Z,11.73
2022-11-05T15:06:21.960Z,11.65
2022-11-05T15:08:48.509Z,11.62
2022-11-05T15:11:21.955Z,11.59
2022-11-05T15:13:54.581Z,11.54
2022-11-05T15:16:48.748Z,11.14
2022-11-05T15:19:27.221Z,10.68
2022-11-05T15:21:56.765Z,11.09
2022-11-05T15:24:28.017Z,11.20
2022-11-05T15:27:07.444Z,11.31
2022-11-05T15:29:34.690Z,11.10
2022-11-05T15:32:02.770Z,10.99
2022-11-05T15:34:32.373Z,11.01
2022-11-05T15:37:02.410Z,10.96
2022-11-05T15:39:47.251Z,11.12
2022-11-05T15:42:15.213Z,11.07
2022-11-05T15:44:44.362Z,11.03
2022-11-05T15:47:19.784Z,10.98
2022-11-05T15:49:50.556Z,10.83
2022-11-05T15:52:21.109Z,10.87
2022-11-05T15:55:06.759Z,10.88
2022-11-05T15:57:37.953Z,10.77
2022-11-05T16:00:14.834Z,10.76
2022-11-05T16:03:02.716Z,10.52
2022-11-05T16:05:33.050Z,10.74
2022-11-05T16:08:03.391Z,10.69
2022-11-05T16:10:36.847Z,10.67
2022-11-05T16:13:26.549Z,10.66
2022-11-05T16:15:58.162Z,10.64
2022-11-05T16:18:31.685Z,10.63
2022-11-05T16:21:12.352Z,9.94
2022-11-05T16:23:51.177Z,10.30
2022-11-05T16:29:33.903Z,10.32
2022-11-05T16:32:04.036Z,9.26
2022-11-05T16:34:42.798Z,10.00
2022-11-05T16:37:16.226Z,10.32
2022-11-05T16:39:42.786Z,9.92
2022-11-05T16:42:27.622Z,10.18
2022-11-05T16:44:55.470Z,10.07
2022-11-05T16:47:22.646Z,9.04
2022-11-05T16:49:49.756Z,9.94
2022-11-05T16:52:18.861Z,9.04
2022-11-05T16:54:45.531Z,9.38
2022-11-05T16:57:32.329Z,9.89
2022-11-05T17:00:00.421Z,9.59
2022-11-05T17:02:28.356Z,9.88
2022-11-05T17:04:55.116Z,9.66
2022-11-05T17:07:21.742Z,8.99
2022-11-05T17:09:48.300Z,9.80
2022-11-05T17:12:15.514Z,9.75
2022-11-05T17:14:42.137Z,9.25
2022-11-05T17:17:08.758Z,9.22
2022-11-05T17:19:35.276Z,9.18
2022-11-05T17:22:02.057Z,9.15
2022-11-05T17:24:28.644Z,9.11
2022-11-05T17:26:55.223Z,9.02
2022-11-05T17:29:21.840Z,9.41
2022-11-05T17:31:48.967Z,9.38
2022-11-05T17:34:15.702Z,8.99
2022-11-05T17:36:42.395Z,8.99
2022-11-05T17:39:10.875Z,8.76
2022-11-05T17:41:37.478Z,9.27
2022-11-05T17:44:04.028Z,9.35
2022-11-05T17:46:30.608Z,9.36
2022-11-05T17:48:57.160Z,9.01
2022-11-05T17:51:23.695Z,8.84
2022-11-05T17:53:50.337Z,9.36
2022-11-05T17:56:28.838Z,9.15
2022-11-05T17:59:00.501Z,9.08
2022-11-05T18:01:31.435Z,9.11
2022-11-05T18:04:01.281Z,9.25
2022-11-05T18:06:32.056Z,8.82
2022-11-05T18:08:58.640Z,9.33
2022-11-05T18:11:25.196Z,9.17
2022-11-05T18:13:51.793Z,9.13
2022-11-05T18:16:18.370Z,8.89
2022-11-05T18:18:44.945Z,8.87
2022-11-05T18:21:11.577Z,9.26
2022-11-05T18:23:38.122Z,9.34
2022-11-05T18:26:15.188Z,9.31
2022-11-05T18:28:42.644Z,8.59
2022-11-05T18:31:20.404Z,8.81
2022-11-05T18:33:48.415Z,9.27
2022-11-05T18:36:23.556Z,9.27
2022-11-05T18:38:50.361Z,9.22
2022-11-05T18:41:17.655Z,8.89
2022-11-05T18:43:44.312Z,8.72
2022-11-05T18:46:29.340Z,9.23
2022-11-05T18:48:59.584Z,9.22
2022-11-05T18:51:26.870Z,8.86
2022-11-05T18:53:57.051Z,8.86
2022-11-05T18:56:24.024Z,9.19
2022-11-05T18:59:14.723Z,8.96
2022-11-05T19:01:40.239Z,8.69
2022-11-05T19:04:07.006Z,8.65
2022-11-05T19:06:34.717Z,9.26
2022-11-05T19:09:02.759Z,9.25
2022-11-05T19:11:29.585Z,8.55
2022-11-05T19:13:57.177Z,8.75
2022-11-05T19:16:25.625Z,9.22
2022-11-05T19:18:52.607Z,9.20
2022-11-05T19:21:22.591Z,9.19
2022-11-05T19:23:50.300Z,9.15
2022-11-05T19:26:28.558Z,9.10
2022-11-05T19:28:58.704Z,9.08
2022-11-05T19:31:26.176Z,8.81
2022-11-05T19:33:53.660Z,8.53
2022-11-05T19:36:21.844Z,9.01
2022-11-05T19:38:53.409Z,8.97
2022-11-05T19:41:21.483Z,8.26
2022-11-05T19:43:48.121Z,8.47
2022-11-05T19:46:17.466Z,8.62
2022-11-05T19:48:44.924Z,8.81
2022-11-05T19:51:17.545Z,8.67
2022-11-05T19:53:44.193Z,8.15
2022-11-05T19:56:19.281Z,8.71
2022-11-05T19:58:46.587Z,8.71
2022-11-05T20:01:14.532Z,8.71
2022-11-05T20:03:41.981Z,8.67
2022-11-05T20:06:18.633Z,8.67
2022-11-05T20:09:07.137Z,8.24
2022-11-05T20:11:31.917Z,8.34
2022-11-05T20:13:58.754Z,8.34
2022-11-05T20:16:28.682Z,7.84
2022-11-05T20:18:57.112Z,8.51
2022-11-05T20:21:23.734Z,8.10
2022-11-05T20:23:50.531Z,8.09
2022-11-05T20:26:17.280Z,8.11
2022-11-05T20:28:43.987Z,8.26
2022-11-05T20:31:13.487Z,7.74
2022-11-05T20:33:41.035Z,8.09
2022-11-05T20:36:13.553Z,7.36
2022-11-05T20:38:40.275Z,7.96
2022-11-05T20:41:11.978Z,7.93
2022-11-05T20:43:42.820Z,7.85
2022-11-05T20:46:13.366Z,7.54
2022-11-05T20:48:40.543Z,7.65
2022-11-05T20:51:15.298Z,7.27
2022-11-05T20:53:42.655Z,7.26
2022-11-05T20:56:23.170Z,7.76
2022-11-05T20:58:50.644Z,7.72
2022-11-05T21:01:18.652Z,7.06
2022-11-05T21:03:46.779Z,7.44
2022-11-05T21:06:13.802Z,7.58
2022-11-05T21:08:40.468Z,7.49
2022-11-05T21:11:08.136Z,6.92
2022-11-05T21:13:34.866Z,6.82
2022-11-05T21:16:02.438Z,7.22
2022-11-05T21:18:31.311Z,7.17
2022-11-05T21:20:59.804Z,6.72
2022-11-05T21:23:29.461Z,6.39
2022-11-05T21:25:56.101Z,6.70
2022-11-05T21:28:23.319Z,6.96
2022-11-05T21:30:50.151Z,6.92
2022-11-05T21:33:18.452Z,6.89
2022-11-05T21:35:48.095Z,6.89
2022-11-05T21:38:16.974Z,6.38
2022-11-05T21:40:44.455Z,6.79
2022-11-05T21:43:11.540Z,6.89
2022-11-05T21:45:39.654Z,6.91
2022-11-05T21:48:07.539Z,6.94
2022-11-05T21:50:53.536Z,6.97
2022-11-05T21:53:38.698Z,6.97
2022-11-05T21:56:35.954Z,7.02
2022-11-05T21:59:24.627Z,7.06
2022-11-05T22:01:51.557Z,7.08
2022-11-05T22:04:19.819Z,7.11
2022-11-05T22:06:46.420Z,6.84
2022-11-05T22:09:13.041Z,7.18
2022-11-05T22:11:39.624Z,7.03
2022-11-05T22:14:06.248Z,7.20
2022-11-05T22:16:32.847Z,7.20
2022-11-05T22:18:59.828Z,6.88
2022-11-05T22:21:26.427Z,7.14
2022-11-05T22:23:53.638Z,6.48
2022-11-05T22:26:20.605Z,7.14
2022-11-05T22:28:48.000Z,7.17
2022-11-05T22:31:16.324Z,7.06
2022-11-05T22:33:43.613Z,6.47
2022-11-05T22:36:11.276Z,7.11
2022-11-05T22:38:38.548Z,7.04
2022-11-05T22:41:14.982Z,7.28
2022-11-05T22:43:41.677Z,6.89
2022-11-05T22:46:11.799Z,7.28
2022-11-05T22:48:39.478Z,7.27
2022-11-05T22:51:14.470Z,7.28
2022-11-05T22:53:41.391Z,7.05
2022-11-05T22:56:11.214Z,6.84
2022-11-05T22:58:38.425Z,7.15
2022-11-05T23:01:06.119Z,7.23
2022-11-05T23:03:33.230Z,7.20
2022-11-05T23:06:02.145Z,6.92
2022-11-05T23:08:47.964Z,6.53
2022-11-05T23:11:38.044Z,7.10
2022-11-05T23:14:06.699Z,7.06
2022-11-05T23:16:51.849Z,6.79
2022-11-05T23:19:37.317Z,7.00
2022-11-05T23:22:24.519Z,6.51
2022-11-05T23:24:52.866Z,6.53
2022-11-05T23:27:19.347Z,6.44
2022-11-05T23:29:46.066Z,6.23
2022-11-05T23:32:24.691Z,5.92
2022-11-05T23:34:54.626Z,6.65
2022-11-05T23:37:41.253Z,6.11
2022-11-05T23:40:10.574Z,6.33
2022-11-05T23:42:55.845Z,5.81
2022-11-05T23:45:41.263Z,6.26
2022-11-05T23:48:18.304Z,6.32
2022-11-05T23:50:49.278Z,6.31
2022-11-05T23:53:15.882Z,6.25
2022-11-05T23:55:42.743Z,6.26
2022-11-05T23:58:10.495Z,5.67
